createdAt,value
2022-08-03T00:02:55.057Z,21.86
2022-08-03T00:07:49.602Z,21.75
2022-08-03T00:12:42.987Z,21.42
2022-08-03T00:17:52.698Z,21.50
2022-08-03T00:22:48.674Z,21.44
2022-08-03T00:27:41.977Z,21.50
2022-08-03T00:32:35.300Z,21.64
2022-08-03T00:37:40.633Z,21.60
2022-08-03T00:42:36.420Z,21.00
2022-08-03T00:47:29.707Z,21.12
2022-08-03T00:52:23.133Z,21.46
2022-08-03T00:57:16.627Z,21.51
2022-08-03T01:02:11.370Z,21.49
2022-08-03T01:07:18.475Z,21.20
2022-08-03T01:12:23.852Z,21.22
2022-08-03T01:17:26.627Z,21.13
2022-08-03T01:22:47.481Z,21.25
2022-08-03T01:27:57.599Z,20.98
2022-08-03T01:33:02.082Z,21.03
2022-08-03T01:38:04.531Z,21.07
2022-08-03T01:43:01.562Z,20.86
2022-08-03T01:47:58.112Z,20.62
2022-08-03T01:52:54.223Z,20.58
2022-08-03T01:58:05.336Z,20.68
2022-08-03T02:03:02.892Z,20.43
2022-08-03T02:07:57.895Z,20.71
2022-08-03T02:12:52.682Z,20.83
2022-08-03T02:17:48.898Z,20.87
2022-08-03T02:22:45.499Z,20.83
2022-08-03T02:27:44.063Z,20.62
2022-08-03T02:32:42.487Z,20.54
2022-08-03T02:37:45.005Z,20.49
2022-08-03T02:42:46.541Z,20.60
2022-08-03T02:47:54.241Z,20.59
2022-08-03T02:52:52.284Z,20.61
2022-08-03T02:57:48.562Z,20.61
2022-08-03T03:02:44.455Z,20.39
2022-08-03T03:07:51.899Z,20.23
2022-08-03T03:12:48.711Z,20.29
2022-08-03T03:17:45.410Z,20.33
2022-08-03T03:22:41.329Z,20.24
2022-08-03T03:27:39.254Z,20.17
2022-08-03T03:32:34.338Z,20.09
2022-08-03T03:37:28.305Z,19.88
2022-08-03T03:42:22.094Z,19.83
2022-08-03T03:47:15.638Z,19.79
2022-08-03T03:52:12.267Z,19.87
2022-08-03T03:57:05.639Z,19.99
2022-08-03T04:01:59.940Z,19.87
2022-08-03T04:07:10.800Z,19.97
2022-08-03T04:12:07.595Z,19.91
2022-08-03T04:17:06.844Z,19.91
2022-08-03T04:22:06.950Z,19.98
2022-08-03T04:27:03.806Z,20.05
2022-08-03T04:32:03.082Z,19.94
2022-08-03T04:37:03.002Z,20.02
2022-08-03T04:42:07.511Z,20.05
2022-08-03T04:47:03.814Z,20.14
2022-08-03T04:51:57.724Z,20.31
2022-08-03T04:56:51.049Z,20.53
2022-08-03T05:01:44.909Z,20.76
2022-08-03T05:06:47.900Z,20.95
2022-08-03T05:11:41.825Z,21.07
2022-08-03T05:16:35.186Z,21.33
2022-08-03T05:21:52.040Z,21.34
2022-08-03T05:26:43.119Z,21.42
2022-08-03T05:31:36.420Z,21.48
2022-08-03T05:36:29.777Z,21.47
2022-08-03T05:41:36.560Z,21.60
2022-08-03T05:46:32.211Z,21.76
2022-08-03T05:51:25.587Z,21.81
2022-08-03T05:56:18.919Z,21.83
2022-08-03T06:01:12.359Z,21.97
2022-08-03T06:06:07.427Z,21.99
2022-08-03T06:11:01.076Z,21.98
2022-08-03T06:15:54.540Z,21.89
2022-08-03T06:20:49.356Z,21.80
2022-08-03T06:25:44.610Z,21.95
2022-08-03T06:30:38.054Z,22.20
2022-08-03T06:35:31.413Z,22.15
2022-08-03T06:40:29.722Z,22.23
2022-08-03T06:45:24.430Z,22.26
2022-08-03T06:50:24.277Z,22.29
2022-08-03T06:55:19.708Z,22.30
2022-08-03T07:00:14.793Z,22.26
2022-08-03T07:05:11.370Z,22.32
2022-08-03T07:10:06.088Z,22.38
2022-08-03T07:15:03.173Z,22.69
2022-08-03T07:19:56.998Z,22.89
2022-08-03T07:24:51.750Z,23.06
2022-08-03T07:29:45.068Z,23.43
2022-08-03T07:34:38.528Z,23.60
2022-08-03T07:39:31.975Z,24.03
2022-08-03T07:44:26.727Z,24.44
2022-08-03T07:49:20.724Z,24.70
2022-08-03T07:54:14.613Z,24.98
2022-08-03T07:59:08.375Z,25.17
2022-08-03T08:04:03.139Z,25.36
2022-08-03T08:08:59.639Z,25.41
2022-08-03T08:13:54.352Z,25.60
2022-08-03T08:18:47.745Z,25.64
2022-08-03T08:23:46.206Z,25.92
2022-08-03T08:28:48.340Z,26.26
2022-08-03T08:34:03.236Z,26.47
2022-08-03T08:38:56.507Z,26.45
2022-08-03T08:43:49.856Z,26.68
2022-08-03T08:48:45.685Z,26.62
2022-08-03T08:53:45.064Z,26.81
2022-08-03T08:58:52.135Z,27.03
2022-08-03T09:03:45.967Z,27.19
2022-08-03T09:08:39.372Z,27.32
2022-08-03T09:13:34.512Z,27.56
2022-08-03T09:18:32.500Z,27.60
2022-08-03T09:23:51.703Z,27.69
2022-08-03T09:28:58.082Z,27.83
2022-08-03T09:33:59.859Z,28.02
2022-08-03T09:39:05.896Z,28.20
2022-08-03T09:43:59.256Z,28.25
2022-08-03T09:48:53.992Z,28.38
2022-08-03T09:53:58.832Z,28.73
2022-08-03T09:58:53.225Z,28.87
2022-08-03T10:04:04.130Z,29.01
2022-08-03T10:09:08.699Z,29.11
2022-08-03T10:14:04.701Z,29.13
2022-08-03T10:18:58.131Z,29.10
2022-08-03T10:23:56.101Z,29.15
2022-08-03T10:28:54.750Z,29.29
2022-08-03T10:33:53.567Z,29.57
2022-08-03T10:38:53.073Z,29.52
2022-08-03T10:43:57.955Z,29.66
2022-08-03T10:48:53.891Z,29.71
2022-08-03T10:53:54.202Z,29.79
2022-08-03T10:58:57.467Z,29.85
2022-08-03T11:04:17.667Z,29.89
2022-08-03T11:09:19.836Z,30.05
2022-08-03T11:14:19.872Z,29.89
2022-08-03T11:19:15.959Z,30.10
2022-08-03T11:24:09.682Z,30.15
2022-08-03T11:29:32.539Z,30.56
2022-08-03T11:34:26.372Z,30.60
2022-08-03T11:39:20.116Z,30.50
2022-08-03T11:44:43.239Z,30.53
2022-08-03T11:49:41.887Z,30.64
2022-08-03T11:54:35.399Z,30.51
2022-08-03T11:59:34.346Z,30.35
2022-08-03T12:04:29.090Z,30.47
2022-08-03T12:09:23.227Z,30.38
2022-08-03T12:14:50.466Z,30.19
2022-08-03T12:19:45.557Z,30.25
2022-08-03T12:24:43.437Z,30.31
2022-08-03T12:29:37.498Z,30.54
2022-08-03T12:34:50.502Z,30.62
2022-08-03T12:40:03.528Z,30.62
2022-08-03T12:44:57.284Z,30.63
2022-08-03T12:49:53.828Z,30.67
2022-08-03T12:54:56.945Z,30.64
2022-08-03T12:59:53.047Z,30.68
2022-08-03T13:04:49.209Z,30.65
2022-08-03T13:09:46.118Z,30.57
2022-08-03T13:14:39.688Z,30.79
2022-08-03T13:19:33.453Z,30.78
2022-08-03T13:24:26.903Z,30.69
2022-08-03T13:29:21.597Z,30.65
2022-08-03T13:34:14.863Z,30.65
2022-08-03T13:39:09.095Z,30.58
2022-08-03T13:44:26.586Z,30.55
2022-08-03T13:49:17.326Z,30.66
2022-08-03T13:54:10.797Z,30.76
2022-08-03T13:59:04.204Z,30.69
2022-08-03T14:03:58.364Z,30.73
2022-08-03T14:08:54.484Z,30.67
2022-08-03T14:13:50.119Z,30.57
2022-08-03T14:18:43.422Z,30.64
2022-08-03T14:23:38.699Z,30.65
2022-08-03T14:28:33.510Z,30.60
2022-08-03T14:33:28.415Z,30.63
2022-08-03T14:38:23.249Z,30.52
2022-08-03T14:43:17.920Z,30.54
2022-08-03T14:50:28.476Z,30.58
2022-08-03T14:53:26.663Z,30.51
2022-08-03T14:58:21.069Z,30.55
2022-08-03T15:03:16.914Z,30.56
2022-08-03T15:08:10.497Z,30.55
2022-08-03T15:13:03.869Z,30.51
2022-08-03T15:17:57.265Z,30.49
2022-08-03T15:22:55.169Z,30.42
2022-08-03T15:28:03.353Z,30.49
2022-08-03T15:32:57.791Z,30.62
2022-08-03T15:37:51.059Z,30.64
2022-08-03T15:42:45.882Z,30.67
2022-08-03T15:47:39.269Z,30.60
2022-08-03T15:52:32.620Z,30.58
2022-08-03T15:57:26.088Z,30.52
2022-08-03T16:02:21.113Z,30.50
2022-08-03T16:07:15.871Z,30.43
2022-08-03T16:12:16.020Z,30.42
2022-08-03T16:17:09.823Z,30.37
2022-08-03T16:22:04.529Z,30.36
2022-08-03T16:26:58.115Z,30.33
2022-08-03T16:31:53.993Z,30.31
2022-08-03T16:36:47.752Z,30.20
2022-08-03T16:41:54.525Z,30.13
2022-08-03T16:46:54.099Z,30.04
2022-08-03T16:51:50.087Z,30.10
2022-08-03T16:56:45.377Z,30.20
2022-08-03T17:01:42.456Z,30.20
2022-08-03T17:06:44.638Z,30.24
2022-08-03T17:11:47.098Z,30.25
2022-08-03T17:16:45.128Z,30.36
2022-08-03T17:21:56.549Z,30.33
2022-08-03T17:26:54.837Z,30.24
2022-08-03T17:31:51.436Z,30.18
2022-08-03T17:37:04.237Z,30.11
2022-08-03T17:42:00.840Z,30.07
2022-08-03T17:46:54.592Z,29.91
2022-08-03T17:51:59.339Z,29.78
2022-08-03T17:57:22.018Z,29.73
2022-08-03T18:02:57.139Z,29.48
2022-08-03T18:07:58.377Z,29.48
2022-08-03T18:13:04.039Z,29.44
2022-08-03T18:18:10.981Z,29.45
2022-08-03T18:23:05.672Z,29.33
2022-08-03T18:28:01.450Z,29.27
2022-08-03T18:33:00.821Z,28.93
2022-08-03T18:37:56.429Z,28.67
2022-08-03T18:42:54.807Z,28.51
2022-08-03T18:48:05.018Z,28.31
2022-08-03T18:58:39.465Z,28.05
2022-08-03T19:03:42.754Z,27.99
2022-08-03T19:08:50.278Z,27.87
2022-08-03T19:13:50.741Z,27.60
2022-08-03T19:18:51.155Z,27.55
2022-08-03T19:23:48.407Z,27.54
2022-08-03T19:28:42.596Z,27.30
2022-08-03T19:33:56.104Z,27.06
2022-08-03T19:38:55.416Z,26.92
2022-08-03T19:43:57.934Z,26.98
2022-08-03T19:49:00.653Z,27.03
2022-08-03T19:53:55.703Z,27.02
2022-08-03T19:58:53.224Z,26.95
2022-08-03T20:03:48.499Z,26.96
2022-08-03T20:08:44.103Z,26.95
2022-08-03T20:13:39.669Z,26.43
2022-08-03T20:18:39.144Z,26.46
2022-08-03T20:23:39.092Z,26.38
2022-08-03T20:29:09.066Z,26.15
2022-08-03T20:34:02.887Z,26.04
2022-08-03T20:38:58.011Z,26.12
2022-08-03T20:43:53.103Z,26.10
2022-08-03T20:48:48.690Z,26.02
2022-08-03T20:53:59.719Z,25.98
2022-08-03T20:58:57.822Z,25.84
2022-08-03T21:03:55.561Z,25.77
2022-08-03T21:08:55.859Z,25.65
2022-08-03T21:13:11.058Z,28.10
2022-08-03T21:14:00.026Z,25.67
2022-08-03T21:18:58.331Z,25.58
2022-08-03T21:23:54.215Z,25.58
2022-08-03T21:28:48.977Z,25.40
2022-08-03T21:33:47.040Z,25.35
2022-08-03T21:38:43.827Z,25.28
2022-08-03T21:43:40.911Z,25.13
2022-08-03T21:48:40.117Z,25.04
2022-08-03T21:54:03.900Z,25.15
2022-08-03T21:58:54.953Z,25.01
2022-08-03T22:03:53.071Z,24.96
2022-08-03T22:08:50.516Z,24.71
2022-08-03T22:13:44.727Z,24.71
2022-08-03T22:18:39.223Z,24.90
2022-08-03T22:23:38.212Z,24.83
2022-08-03T22:28:34.073Z,24.44
2022-08-03T22:33:29.109Z,24.48
2022-08-03T22:38:23.086Z,24.39
2022-08-03T22:43:16.716Z,24.30
2022-08-03T22:48:14.651Z,24.47
2022-08-03T22:53:08.976Z,24.57
2022-08-03T22:58:02.291Z,24.37
2022-08-03T23:03:09.062Z,23.98
2022-08-03T23:08:13.755Z,24.10
2022-08-03T23:13:14.892Z,24.17
2022-08-03T23:18:13.614Z,23.89
2022-08-03T23:23:19.956Z,23.67
2022-08-03T23:28:17.689Z,23.71
2022-08-03T23:33:13.863Z,23.53
2022-08-03T23:38:21.861Z,23.23
2022-08-03T23:43:44.692Z,23.39
2022-08-03T23:48:31.223Z,23.38
2022-08-03T23:53:33.311Z,23.18
2022-08-03T23:58:51.716Z,23.42
